createdAt,value
2023-05-09T00:00:27.456Z,113.64
2023-05-09T00:01:27.478Z,113.68
2023-05-09T00:02:27.577Z,119.31
2023-05-09T00:03:27.505Z,119.72
2023-05-09T00:04:27.567Z,120.51
2023-05-09T00:05:27.505Z,120.11
2023-05-09T00:06:27.489Z,120.25
2023-05-09T00:07:27.493Z,118.90
2023-05-09T00:08:27.493Z,121.19
2023-05-09T00:09:27.525Z,121.95
2023-05-09T00:10:27.525Z,124.42
2023-05-09T00:11:27.541Z,121.15
2023-05-09T00:12:27.530Z,121.74
2023-05-09T00:13:27.611Z,122.30
2023-05-09T00:14:27.596Z,120.36
2023-05-09T00:15:27.746Z,117.15
2023-05-09T00:16:27.722Z,118.90
2023-05-09T00:17:27.774Z,120.64
2023-05-09T00:18:27.783Z,119.98
2023-05-09T00:19:27.757Z,119.01
2023-05-09T00:20:27.756Z,120.69
2023-05-09T00:21:27.766Z,121.38
2023-05-09T00:22:27.758Z,122.92
2023-05-09T00:23:27.753Z,123.02
2023-05-09T00:24:27.743Z,120.99
2023-05-09T00:25:27.757Z,121.65
2023-05-09T00:26:27.805Z,120.54
2023-05-09T00:27:27.797Z,119.75
2023-05-09T00:28:27.823Z,119.28
2023-05-09T00:29:27.822Z,121.08
2023-05-09T00:30:27.808Z,121.08
2023-05-09T00:31:27.958Z,120.63
2023-05-09T00:32:27.815Z,120.96
2023-05-09T00:33:27.801Z,123.65
2023-05-09T00:34:27.798Z,125.59
2023-05-09T00:35:27.815Z,122.47
2023-05-09T00:36:27.801Z,124.89
2023-05-09T00:37:27.824Z,122.75
2023-05-09T00:38:27.806Z,122.76
2023-05-09T00:39:27.822Z,120.12
2023-05-09T00:40:27.793Z,121.45
2023-05-09T00:41:27.836Z,119.42
2023-05-09T00:42:27.815Z,122.49
2023-05-09T00:43:27.808Z,121.89
2023-05-09T00:44:27.843Z,119.54
2023-05-09T00:45:27.843Z,118.36
2023-05-09T00:46:27.879Z,120.84
2023-05-09T00:47:27.931Z,120.23
2023-05-09T00:48:27.847Z,120.18
2023-05-09T00:49:27.852Z,122.02
2023-05-09T00:50:27.843Z,121.18
2023-05-09T00:51:27.843Z,119.78
2023-05-09T00:52:27.839Z,118.31
2023-05-09T00:53:27.843Z,118.87
2023-05-09T00:54:27.880Z,118.41
2023-05-09T00:55:27.929Z,119.80
2023-05-09T00:56:27.849Z,119.64
2023-05-09T00:57:27.845Z,122.16
2023-05-09T00:58:27.832Z,120.24
2023-05-09T00:59:27.845Z,119.15
2023-05-09T01:00:27.876Z,119.01
2023-05-09T01:01:27.955Z,115.12
2023-05-09T01:02:28.003Z,114.98
2023-05-09T01:03:28.155Z,118.17
2023-05-09T01:04:28.028Z,119.73
2023-05-09T01:05:28.073Z,121.89
2023-05-09T01:06:28.144Z,122.32
2023-05-09T01:07:28.176Z,119.70
2023-05-09T01:08:28.330Z,119.06
2023-05-09T01:09:28.242Z,117.40
2023-05-09T01:10:28.300Z,114.88
2023-05-09T01:11:28.356Z,116.95
2023-05-09T01:12:28.327Z,119.52
2023-05-09T01:13:28.406Z,121.90
2023-05-09T01:14:28.383Z,118.25
2023-05-09T01:15:28.454Z,117.76
2023-05-09T01:16:28.567Z,118.37
2023-05-09T01:17:28.500Z,121.70
2023-05-09T01:18:28.473Z,121.11
2023-05-09T01:19:28.546Z,120.99
2023-05-09T01:20:28.481Z,119.23
2023-05-09T01:21:28.473Z,118.10
2023-05-09T01:22:28.462Z,117.22
2023-05-09T01:23:28.475Z,120.15
2023-05-09T01:24:28.478Z,122.68
2023-05-09T01:25:28.494Z,121.31
2023-05-09T01:26:28.497Z,120.68
2023-05-09T01:27:28.486Z,122.74
2023-05-09T01:28:28.493Z,123.13
2023-05-09T01:29:28.474Z,122.61
2023-05-09T01:30:28.487Z,123.14
2023-05-09T01:31:28.553Z,119.91
2023-05-09T01:32:28.562Z,122.23
2023-05-09T01:33:28.493Z,122.40
2023-05-09T01:34:28.510Z,121.92
2023-05-09T01:35:28.660Z,123.23
2023-05-09T01:36:28.591Z,122.30
2023-05-09T01:37:28.595Z,122.91
2023-05-09T01:38:28.571Z,126.34
2023-05-09T01:39:28.580Z,129.47
2023-05-09T01:40:28.620Z,131.66
2023-05-09T01:41:28.645Z,130.18
2023-05-09T01:42:28.691Z,130.54
2023-05-09T01:43:28.760Z,129.37
2023-05-09T01:44:28.800Z,129.91
2023-05-09T01:45:28.838Z,127.32
2023-05-09T01:46:28.884Z,127.34
2023-05-09T01:47:28.885Z,129.50
2023-05-09T01:48:28.883Z,128.65
2023-05-09T01:49:28.863Z,127.00
2023-05-09T01:50:28.889Z,129.26
2023-05-09T01:51:28.957Z,127.87
2023-05-09T01:52:28.872Z,129.02
2023-05-09T01:53:28.907Z,129.71
2023-05-09T01:54:28.883Z,127.29
2023-05-09T01:55:28.893Z,127.60
2023-05-09T01:56:28.868Z,130.90
2023-05-09T01:57:28.865Z,128.63
2023-05-09T01:58:28.898Z,126.06
2023-05-09T01:59:28.868Z,128.61
2023-05-09T02:00:28.860Z,130.86
2023-05-09T02:01:28.881Z,129.97
2023-05-09T02:02:28.995Z,129.55
2023-05-09T02:03:28.908Z,129.34
2023-05-09T02:04:28.873Z,130.22
2023-05-09T02:05:28.892Z,130.00
2023-05-09T02:06:28.876Z,130.57
2023-05-09T02:07:28.955Z,128.01
2023-05-09T02:08:28.921Z,130.35
2023-05-09T02:09:28.981Z,128.15
2023-05-09T02:10:29.015Z,126.90
2023-05-09T02:11:29.109Z,127.59
2023-05-09T02:12:29.088Z,127.16
2023-05-09T02:13:29.116Z,128.17
2023-05-09T02:14:29.086Z,127.64
2023-05-09T02:15:29.161Z,127.46
2023-05-09T02:16:29.225Z,130.65
2023-05-09T02:17:29.225Z,128.86
2023-05-09T02:18:29.222Z,133.44
2023-05-09T02:19:29.222Z,135.23
2023-05-09T02:20:29.242Z,135.12
2023-05-09T02:21:29.353Z,131.22
2023-05-09T02:22:29.326Z,131.39
2023-05-09T02:23:29.396Z,131.00
2023-05-09T02:24:29.322Z,129.09
2023-05-09T02:25:29.324Z,130.41
2023-05-09T02:26:29.316Z,129.58
2023-05-09T02:27:29.317Z,130.34
2023-05-09T02:28:29.314Z,131.92
2023-05-09T02:29:29.311Z,130.95
2023-05-09T02:30:29.294Z,131.77
2023-05-09T02:31:29.438Z,131.91
2023-05-09T02:32:29.362Z,133.76
2023-05-09T02:33:29.296Z,134.83
2023-05-09T02:34:29.278Z,133.09
2023-05-09T02:35:29.321Z,134.01
2023-05-09T02:36:29.291Z,133.87
2023-05-09T02:37:29.315Z,135.62
2023-05-09T02:38:29.311Z,134.90
2023-05-09T02:39:29.402Z,136.68
2023-05-09T02:40:29.339Z,136.08
2023-05-09T02:41:29.330Z,136.46
2023-05-09T02:42:29.326Z,135.50
2023-05-09T02:43:29.342Z,136.23
2023-05-09T02:44:29.307Z,135.82
2023-05-09T02:45:29.328Z,137.27
2023-05-09T02:46:29.386Z,137.47
2023-05-09T02:47:29.369Z,134.98
2023-05-09T02:48:29.351Z,131.57
2023-05-09T02:49:32.366Z,134.17
2023-05-09T02:50:29.334Z,135.06
2023-05-09T02:51:29.330Z,133.80
2023-05-09T02:52:29.365Z,132.95
2023-05-09T02:53:29.320Z,134.13
2023-05-09T02:54:29.305Z,132.79
2023-05-09T02:55:29.380Z,132.31
2023-05-09T02:56:29.327Z,131.64
2023-05-09T02:57:29.278Z,131.20
2023-05-09T02:58:29.270Z,132.80
2023-05-09T02:59:29.334Z,132.12
2023-05-09T03:00:29.277Z,133.17
2023-05-09T03:01:29.293Z,129.81
2023-05-09T03:02:29.418Z,132.23
2023-05-09T03:03:29.439Z,132.42
2023-05-09T03:04:29.244Z,134.25
2023-05-09T03:05:29.229Z,134.06
2023-05-09T03:06:29.245Z,133.49
2023-05-09T03:07:29.217Z,133.10
2023-05-09T03:08:29.217Z,136.74
2023-05-09T03:09:29.196Z,136.26
2023-05-09T03:10:29.188Z,137.62
2023-05-09T03:11:29.265Z,138.11
2023-05-09T03:12:29.224Z,137.52
2023-05-09T03:13:29.169Z,139.84
2023-05-09T03:14:29.169Z,136.07
2023-05-09T03:15:29.158Z,135.78
2023-05-09T03:16:29.165Z,135.27
2023-05-09T03:17:29.175Z,140.37
2023-05-09T03:18:29.147Z,140.81
2023-05-09T03:19:29.145Z,137.11
2023-05-09T03:20:29.154Z,140.60
2023-05-09T03:21:29.127Z,139.96
2023-05-09T03:22:29.126Z,137.96
2023-05-09T03:23:29.101Z,136.87
2023-05-09T03:24:29.106Z,137.92
2023-05-09T03:25:29.110Z,137.98
2023-05-09T03:26:29.220Z,136.46
2023-05-09T03:27:29.294Z,135.40
2023-05-09T03:28:29.251Z,133.94
2023-05-09T03:29:29.073Z,134.70
2023-05-09T03:30:29.078Z,134.84
2023-05-09T03:31:29.081Z,135.88
2023-05-09T03:32:29.145Z,136.22
2023-05-09T03:33:29.061Z,137.44
2023-05-09T03:34:29.051Z,135.86
2023-05-09T03:35:29.045Z,136.53
2023-05-09T03:36:29.124Z,137.82
2023-05-09T03:37:29.017Z,137.74
2023-05-09T03:38:29.012Z,136.40
2023-05-09T03:39:29.018Z,136.93
2023-05-09T03:40:28.998Z,136.53
2023-05-09T03:41:29.002Z,135.23
2023-05-09T03:42:29.006Z,137.50
2023-05-09T03:43:29.089Z,133.59
2023-05-09T03:44:28.993Z,134.82
2023-05-09T03:45:28.984Z,131.56
2023-05-09T03:46:29.024Z,134.14
2023-05-09T03:47:29.016Z,131.23
2023-05-09T03:48:28.958Z,132.24
2023-05-09T03:49:28.954Z,132.58
2023-05-09T03:50:28.948Z,134.49
2023-05-09T03:51:28.923Z,135.16
2023-05-09T03:52:28.941Z,132.25
2023-05-09T03:53:28.914Z,135.15
2023-05-09T03:54:28.920Z,137.34
2023-05-09T03:55:28.932Z,133.20
2023-05-09T03:56:28.901Z,133.96
2023-05-09T03:57:28.901Z,134.91
2023-05-09T03:58:28.886Z,134.84
2023-05-09T03:59:28.958Z,135.56
2023-05-09T04:00:28.887Z,135.21
2023-05-09T04:01:28.891Z,134.35
2023-05-09T04:02:29.026Z,133.70
2023-05-09T04:03:28.921Z,131.89
2023-05-09T04:04:28.843Z,134.74
2023-05-09T04:05:28.830Z,135.23
2023-05-09T04:06:28.835Z,136.34
2023-05-09T04:07:28.833Z,134.60
2023-05-09T04:08:28.835Z,134.44
2023-05-09T04:09:28.843Z,136.24
2023-05-09T04:10:28.824Z,137.03
2023-05-09T04:11:28.829Z,136.00
2023-05-09T04:12:28.863Z,133.45
2023-05-09T04:13:28.900Z,134.05
2023-05-09T04:14:28.869Z,133.72
2023-05-09T04:15:28.903Z,134.46
2023-05-09T04:16:28.933Z,134.65
2023-05-09T04:17:28.935Z,137.66
2023-05-09T04:18:28.914Z,138.35
2023-05-09T04:19:28.938Z,135.58
2023-05-09T04:20:28.942Z,137.85
2023-05-09T04:21:28.956Z,137.23
2023-05-09T04:22:28.958Z,137.62
2023-05-09T04:23:28.968Z,135.36
2023-05-09T04:24:28.989Z,135.49
2023-05-09T04:25:28.963Z,136.38
2023-05-09T04:26:28.968Z,133.53
2023-05-09T04:27:29.019Z,135.92
2023-05-09T04:28:29.061Z,135.25
2023-05-09T04:29:29.076Z,136.82
2023-05-09T04:30:29.071Z,135.63
2023-05-09T04:31:29.386Z,136.16
2023-05-09T04:32:29.124Z,134.62
2023-05-09T04:33:29.143Z,134.58
2023-05-09T04:34:29.119Z,135.54
2023-05-09T04:35:29.156Z,135.72
2023-05-09T04:36:29.145Z,137.87
2023-05-09T04:37:29.170Z,133.80
2023-05-09T04:38:29.393Z,136.38
2023-05-09T04:39:29.187Z,133.59
2023-05-09T04:40:29.214Z,135.93
2023-05-09T04:41:29.210Z,135.55
2023-05-09T04:42:29.227Z,135.45
2023-05-09T04:43:29.262Z,136.38
2023-05-09T04:44:29.261Z,136.72
2023-05-09T04:45:29.322Z,137.29
2023-05-09T04:46:29.408Z,138.86
2023-05-09T04:47:29.563Z,141.69
2023-05-09T04:48:29.509Z,141.35
2023-05-09T04:49:29.512Z,142.38
2023-05-09T04:50:29.562Z,143.64
2023-05-09T04:51:29.589Z,142.43
2023-05-09T04:52:29.629Z,140.29
2023-05-09T04:53:29.659Z,141.35
2023-05-09T04:54:29.649Z,141.44
2023-05-09T04:55:29.649Z,138.83
2023-05-09T04:56:29.679Z,138.95
2023-05-09T04:57:29.669Z,138.59
2023-05-09T04:58:29.686Z,136.73
2023-05-09T04:59:29.698Z,140.10
2023-05-09T05:00:29.707Z,141.62
2023-05-09T05:01:29.760Z,142.88
2023-05-09T05:02:29.763Z,140.36
2023-05-09T05:03:29.837Z,142.36
2023-05-09T05:04:29.808Z,142.36
2023-05-09T05:05:30.122Z,143.33
2023-05-09T05:06:29.808Z,145.42
2023-05-09T05:07:29.814Z,145.48
2023-05-09T05:08:29.824Z,147.32
2023-05-09T05:09:29.911Z,149.34
2023-05-09T05:10:29.882Z,151.61
2023-05-09T05:11:29.911Z,151.29
2023-05-09T05:12:29.915Z,153.52
2023-05-09T05:13:29.930Z,152.23
2023-05-09T05:14:29.920Z,154.01
2023-05-09T05:15:29.929Z,151.67
2023-05-09T05:16:30.002Z,152.95
2023-05-09T05:17:30.053Z,151.42
2023-05-09T05:18:30.039Z,154.95
2023-05-09T05:19:30.204Z,156.42
2023-05-09T05:20:30.156Z,154.53
2023-05-09T05:21:30.214Z,154.91
2023-05-09T05:22:31.645Z,154.17
2023-05-09T05:23:30.762Z,159.04
2023-05-09T05:24:30.340Z,156.49
2023-05-09T05:25:30.353Z,156.38
2023-05-09T05:26:30.326Z,148.46
2023-05-09T05:27:30.347Z,150.06
2023-05-09T05:28:30.774Z,152.73
2023-05-09T05:29:30.375Z,157.55
2023-05-09T05:30:31.580Z,162.91
2023-05-09T05:31:30.418Z,167.50
2023-05-09T05:32:30.405Z,171.48
2023-05-09T05:33:30.765Z,177.40
2023-05-09T05:34:30.479Z,186.98
2023-05-09T05:35:30.599Z,195.31
2023-05-09T05:36:30.563Z,200.25
2023-05-09T05:37:30.759Z,208.67
2023-05-09T05:38:30.632Z,217.95
2023-05-09T05:39:30.685Z,229.97
2023-05-09T05:40:30.734Z,235.37
2023-05-09T05:41:30.816Z,242.76
2023-05-09T05:42:30.869Z,248.93
2023-05-09T05:43:30.923Z,248.60
2023-05-09T05:44:31.002Z,249.34
2023-05-09T05:45:31.098Z,249.28
2023-05-09T05:46:31.060Z,250.82
2023-05-09T05:47:31.174Z,249.14
2023-05-09T05:48:31.157Z,248.76
2023-05-09T05:49:31.224Z,250.00
2023-05-09T05:50:31.251Z,248.87
2023-05-09T05:51:31.342Z,248.71
2023-05-09T05:52:31.327Z,248.98
2023-05-09T05:53:32.711Z,248.79
2023-05-09T05:54:31.367Z,248.84
2023-05-09T05:55:31.390Z,250.47
2023-05-09T05:56:31.419Z,250.00
2023-05-09T05:57:31.489Z,248.04
2023-05-09T05:58:31.528Z,249.50
2023-05-09T05:59:31.542Z,250.00
2023-05-09T06:00:31.660Z,247.11
2023-05-09T06:01:31.698Z,249.14
2023-05-09T06:02:31.708Z,249.23
2023-05-09T06:03:31.822Z,249.22
2023-05-09T06:04:31.789Z,248.72
2023-05-09T06:05:31.876Z,248.95
2023-05-09T06:06:31.830Z,251.95
2023-05-09T06:07:31.903Z,253.02
2023-05-09T06:08:31.830Z,249.50
2023-05-09T06:09:31.818Z,249.75
2023-05-09T06:10:31.842Z,246.62
2023-05-09T06:11:31.840Z,249.96
2023-05-09T06:12:31.882Z,249.38
2023-05-09T06:13:32.270Z,249.00
2023-05-09T06:14:32.289Z,249.26
2023-05-09T06:15:31.916Z,245.13
2023-05-09T06:16:31.895Z,240.77
2023-05-09T06:17:31.904Z,238.08
2023-05-09T06:18:31.886Z,240.42
2023-05-09T06:19:31.907Z,236.15
2023-05-09T06:20:31.881Z,242.43
2023-05-09T06:21:31.849Z,248.08
2023-05-09T06:22:31.847Z,245.44
2023-05-09T06:23:31.965Z,246.59
2023-05-09T06:24:35.792Z,246.11
2023-05-09T06:25:31.889Z,246.21
2023-05-09T06:26:31.887Z,246.45
2023-05-09T06:27:31.886Z,247.76
2023-05-09T06:28:31.855Z,248.91
2023-05-09T06:29:31.881Z,249.91
2023-05-09T06:30:31.871Z,246.50
2023-05-09T06:31:31.848Z,247.59
2023-05-09T06:32:31.896Z,241.99
2023-05-09T06:33:31.837Z,237.34
2023-05-09T06:34:32.287Z,226.94
2023-05-09T06:35:31.893Z,219.45
2023-05-09T06:36:31.810Z,222.61
2023-05-09T06:37:31.801Z,222.82
2023-05-09T06:38:31.931Z,215.93
2023-05-09T06:39:31.867Z,217.79
2023-05-09T06:40:31.771Z,208.55
2023-05-09T06:41:31.794Z,201.17
2023-05-09T06:42:31.762Z,203.34
2023-05-09T06:43:31.773Z,194.49
2023-05-09T06:44:31.765Z,180.68
2023-05-09T06:45:31.773Z,178.79
2023-05-09T06:46:31.776Z,181.90
2023-05-09T06:47:31.987Z,174.19
2023-05-09T06:48:32.452Z,165.67
2023-05-09T06:49:31.867Z,171.19
2023-05-09T06:50:32.919Z,166.28
2023-05-09T06:51:31.949Z,163.32
2023-05-09T06:52:32.046Z,164.48
2023-05-09T06:53:32.340Z,157.81
2023-05-09T06:54:32.147Z,161.95
2023-05-09T06:55:32.290Z,161.85
2023-05-09T06:56:32.269Z,164.74
2023-05-09T06:57:32.456Z,164.99
2023-05-09T06:58:32.865Z,168.41
2023-05-09T06:59:32.793Z,167.93
2023-05-09T07:00:32.409Z,170.38
2023-05-09T07:01:32.593Z,173.38
2023-05-09T07:02:32.524Z,172.37
2023-05-09T07:03:32.503Z,175.61
2023-05-09T07:04:32.566Z,170.56
2023-05-09T07:05:32.756Z,171.57
2023-05-09T07:06:32.630Z,171.30
2023-05-09T07:07:32.626Z,168.31
2023-05-09T07:08:32.692Z,172.72
2023-05-09T07:09:32.641Z,177.22
2023-05-09T07:10:32.710Z,180.88
2023-05-09T07:11:32.767Z,185.95
2023-05-09T07:12:32.713Z,190.58
2023-05-09T07:13:32.717Z,186.04
2023-05-09T07:14:32.825Z,184.03
2023-05-09T07:15:41.289Z,183.14
2023-05-09T07:16:35.808Z,183.28
2023-05-09T07:17:32.877Z,183.34
2023-05-09T07:18:32.712Z,183.57
2023-05-09T07:19:32.842Z,183.19
2023-05-09T07:20:32.722Z,184.35
2023-05-09T07:21:32.686Z,184.83
2023-05-09T07:22:34.113Z,183.57
2023-05-09T07:23:32.654Z,179.62
2023-05-09T07:24:32.876Z,177.60
2023-05-09T07:25:32.695Z,176.84
2023-05-09T07:26:32.660Z,173.07
2023-05-09T07:27:32.737Z,155.59
2023-05-09T07:28:32.689Z,159.41
2023-05-09T07:29:32.630Z,171.45
2023-05-09T07:30:32.629Z,170.96
2023-05-09T07:31:33.548Z,170.20
2023-05-09T07:32:32.834Z,160.14
2023-05-09T07:33:32.818Z,143.23
2023-05-09T07:34:32.839Z,135.40
2023-05-09T07:35:32.871Z,125.89
2023-05-09T07:36:34.746Z,117.98
2023-05-09T07:37:33.018Z,113.19
2023-05-09T07:38:33.297Z,103.97
2023-05-09T07:39:33.330Z,104.32
2023-05-09T07:40:33.209Z,99.96
2023-05-09T07:41:33.260Z,93.78
2023-05-09T07:42:33.267Z,92.60
2023-05-09T07:43:33.268Z,86.06
2023-05-09T07:44:33.262Z,86.64
2023-05-09T07:45:33.322Z,84.56
2023-05-09T07:46:33.319Z,80.68
2023-05-09T07:47:33.352Z,77.46
2023-05-09T07:48:33.357Z,76.85
2023-05-09T07:49:33.419Z,76.29
2023-05-09T07:50:33.492Z,76.15
2023-05-09T07:51:33.528Z,74.72
2023-05-09T07:52:33.602Z,74.13
2023-05-09T07:53:33.637Z,74.01
2023-05-09T07:54:33.797Z,73.84
2023-05-09T07:55:33.748Z,74.43
2023-05-09T07:56:33.961Z,74.06
2023-05-09T07:57:33.873Z,74.50
2023-05-09T07:58:33.946Z,75.10
2023-05-09T07:59:34.414Z,76.10
2023-05-09T08:00:34.072Z,77.46
2023-05-09T08:01:34.133Z,79.46
2023-05-09T08:02:34.276Z,75.69
2023-05-09T08:03:34.283Z,76.98
2023-05-09T08:04:34.373Z,72.53
2023-05-09T08:05:34.353Z,66.95
2023-05-09T08:06:34.410Z,62.10
2023-05-09T08:07:34.472Z,63.96
2023-05-09T08:08:34.502Z,63.77
2023-05-09T08:09:34.536Z,61.97
2023-05-09T08:10:34.582Z,63.96
2023-05-09T08:11:34.655Z,61.72
2023-05-09T08:12:34.688Z,55.97
2023-05-09T08:13:34.745Z,47.59
2023-05-09T08:14:34.754Z,49.29
2023-05-09T08:15:34.895Z,45.28
2023-05-09T08:16:34.818Z,37.71
2023-05-09T08:17:34.838Z,45.62
2023-05-09T08:18:34.820Z,37.86
2023-05-09T08:19:34.838Z,41.79
2023-05-09T08:20:34.849Z,34.66
2023-05-09T08:21:34.871Z,25.06
2023-05-09T08:22:34.933Z,31.35
2023-05-09T08:23:35.312Z,44.77
2023-05-09T08:24:34.926Z,43.06
2023-05-09T08:25:34.964Z,46.90
2023-05-09T08:26:35.042Z,61.74
2023-05-09T08:27:35.014Z,72.97
2023-05-09T08:28:35.065Z,66.95
2023-05-09T08:29:35.067Z,67.48
2023-05-09T08:30:35.051Z,76.98
2023-05-09T08:31:35.293Z,82.69
2023-05-09T08:32:35.257Z,84.28
2023-05-09T08:33:35.293Z,69.02
2023-05-09T08:34:35.290Z,64.02
2023-05-09T08:35:35.308Z,72.77
2023-05-09T08:36:35.343Z,58.33
2023-05-09T08:37:35.349Z,61.61
2023-05-09T08:38:35.339Z,77.36
2023-05-09T08:39:35.850Z,85.82
2023-05-09T08:40:35.345Z,74.58
2023-05-09T08:41:35.323Z,83.35
2023-05-09T08:42:35.389Z,78.70
2023-05-09T08:43:35.826Z,80.95
2023-05-09T08:44:35.477Z,90.22
2023-05-09T08:45:35.544Z,95.31
2023-05-09T08:46:35.632Z,97.61
2023-05-09T08:47:35.747Z,103.78
2023-05-09T08:48:36.129Z,107.97
2023-05-09T08:49:35.714Z,111.40
2023-05-09T08:50:35.738Z,116.54
2023-05-09T08:51:35.840Z,116.40
2023-05-09T08:52:35.821Z,117.97
2023-05-09T08:53:36.361Z,119.95
2023-05-09T08:54:35.910Z,119.75
2023-05-09T08:55:35.920Z,122.32
2023-05-09T08:56:35.949Z,117.95
2023-05-09T08:57:35.988Z,126.39
2023-05-09T08:58:35.981Z,125.92
2023-05-09T08:59:36.182Z,129.24
2023-05-09T09:00:36.060Z,130.96
2023-05-09T09:01:36.152Z,138.01
2023-05-09T09:02:36.161Z,118.94
2023-05-09T09:03:36.275Z,125.52
2023-05-09T09:04:36.357Z,125.83
2023-05-09T09:06:36.249Z,135.67
2023-05-09T09:07:36.259Z,134.49
2023-05-09T09:08:36.244Z,137.80
2023-05-09T09:09:36.244Z,132.76
2023-05-09T09:10:36.215Z,137.29
2023-05-09T09:11:36.294Z,134.37
2023-05-09T09:12:36.235Z,138.88
2023-05-09T09:13:36.280Z,137.42
2023-05-09T09:14:36.340Z,134.64
2023-05-09T09:15:36.194Z,139.27
2023-05-09T09:16:36.258Z,139.70
2023-05-09T09:17:36.230Z,135.47
2023-05-09T09:18:36.176Z,138.00
2023-05-09T09:19:36.242Z,141.63
2023-05-09T09:20:36.182Z,136.50
2023-05-09T09:21:36.145Z,135.12
2023-05-09T09:22:36.137Z,136.75
2023-05-09T09:23:36.152Z,141.22
2023-05-09T09:24:36.349Z,144.89
2023-05-09T09:25:36.145Z,147.09
2023-05-09T09:26:36.117Z,146.63
2023-05-09T09:27:36.106Z,143.75
2023-05-09T09:28:36.116Z,154.61
2023-05-09T09:29:36.367Z,159.46
2023-05-09T09:30:36.108Z,164.56
2023-05-09T09:31:36.150Z,169.37
2023-05-09T09:32:36.128Z,172.48
2023-05-09T09:33:36.082Z,177.91
2023-05-09T09:34:36.351Z,174.57
2023-05-09T09:35:36.146Z,157.66
2023-05-09T09:36:36.096Z,159.08
2023-05-09T09:37:36.049Z,135.93
2023-05-09T09:38:36.049Z,140.16
2023-05-09T09:39:36.347Z,138.85
2023-05-09T09:40:36.032Z,122.70
2023-05-09T09:41:36.038Z,98.64
2023-05-09T09:42:36.001Z,101.88
2023-05-09T09:43:36.003Z,98.90
2023-05-09T09:44:36.357Z,94.64
2023-05-09T09:45:36.047Z,101.89
2023-05-09T09:46:36.090Z,120.74
2023-05-09T09:47:36.005Z,111.73
2023-05-09T09:48:36.395Z,132.80
2023-05-09T09:49:36.348Z,137.82
2023-05-09T09:50:35.964Z,111.02
2023-05-09T09:51:36.040Z,97.32
2023-05-09T09:52:35.933Z,116.53
2023-05-09T09:53:35.930Z,123.20
2023-05-09T09:54:36.448Z,121.30
2023-05-09T09:55:35.919Z,114.10
2023-05-09T09:56:35.928Z,111.32
2023-05-09T09:57:35.918Z,109.33
2023-05-09T09:58:35.891Z,112.18
2023-05-09T09:59:35.909Z,108.04
2023-05-09T10:00:35.885Z,111.27
2023-05-09T10:01:35.941Z,114.22
2023-05-09T10:02:35.906Z,105.88
2023-05-09T10:03:35.873Z,108.39
2023-05-09T10:04:35.885Z,96.64
2023-05-09T10:05:35.863Z,105.42
2023-05-09T10:06:35.839Z,105.93
2023-05-09T10:07:35.925Z,100.59
2023-05-09T10:08:35.851Z,90.56
2023-05-09T10:09:35.856Z,97.51
2023-05-09T10:10:35.812Z,90.43
2023-05-09T10:11:35.807Z,92.34
2023-05-09T10:12:35.826Z,88.79
2023-05-09T10:13:35.817Z,90.40
2023-05-09T10:14:35.900Z,91.74
2023-05-09T10:15:49.280Z,81.62
2023-05-09T10:16:43.916Z,81.64
2023-05-09T10:17:36.992Z,81.96
2023-05-09T10:18:36.080Z,83.35
2023-05-09T10:19:35.876Z,79.83
2023-05-09T10:20:35.857Z,83.64
2023-05-09T10:21:36.761Z,89.81
2023-05-09T10:22:35.834Z,56.24
2023-05-09T10:23:35.913Z,43.94
2023-05-09T10:24:35.910Z,44.28
2023-05-09T10:25:35.810Z,60.72
2023-05-09T10:26:35.815Z,74.67
2023-05-09T10:27:35.787Z,80.07
2023-05-09T10:28:35.816Z,86.96
2023-05-09T10:29:35.848Z,84.67
2023-05-09T10:30:35.931Z,90.22
2023-05-09T10:31:35.963Z,99.09
2023-05-09T10:32:35.995Z,100.79
2023-05-09T10:33:36.004Z,111.74
2023-05-09T10:34:36.378Z,114.44
2023-05-09T10:35:36.071Z,114.82
2023-05-09T10:36:36.099Z,122.07
2023-05-09T10:37:36.148Z,117.25
2023-05-09T10:38:36.216Z,125.06
2023-05-09T10:39:36.334Z,126.09
2023-05-09T10:40:36.317Z,121.60
2023-05-09T10:41:36.335Z,111.25
2023-05-09T10:42:36.349Z,125.45
2023-05-09T10:43:36.833Z,126.17
2023-05-09T10:44:36.870Z,127.26
2023-05-09T10:45:36.398Z,125.72
2023-05-09T10:46:36.412Z,128.76
2023-05-09T10:47:36.408Z,126.56
2023-05-09T10:48:36.451Z,124.18
2023-05-09T10:49:37.238Z,124.15
2023-05-09T10:50:36.434Z,109.82
2023-05-09T10:51:36.465Z,111.83
2023-05-09T10:52:36.502Z,109.14
2023-05-09T10:53:36.488Z,115.96
2023-05-09T10:54:36.896Z,126.13
2023-05-09T10:55:36.589Z,132.66
2023-05-09T10:56:36.532Z,136.20
2023-05-09T10:57:36.522Z,141.71
2023-05-09T10:58:36.590Z,145.66
2023-05-09T10:59:36.884Z,147.57
2023-05-09T11:00:36.572Z,149.33
2023-05-09T11:01:36.699Z,153.16
2023-05-09T11:02:36.724Z,155.81
2023-05-09T11:03:36.814Z,156.29
2023-05-09T11:04:36.881Z,155.61
2023-05-09T11:05:36.814Z,158.29
2023-05-09T11:06:36.838Z,152.14
2023-05-09T11:07:36.879Z,150.10
2023-05-09T11:08:36.914Z,144.84
2023-05-09T11:09:36.933Z,149.83
2023-05-09T11:10:36.963Z,155.56
2023-05-09T11:11:37.060Z,152.68
2023-05-09T11:12:37.060Z,165.24
2023-05-09T11:13:37.084Z,158.36
2023-05-09T11:14:37.408Z,155.72
2023-05-09T11:15:37.195Z,138.00
2023-05-09T11:16:37.246Z,74.26
2023-05-09T11:17:37.271Z,90.81
2023-05-09T11:18:37.308Z,95.26
2023-05-09T11:19:37.400Z,40.85
2023-05-09T11:20:37.399Z,46.06
2023-05-09T11:21:37.432Z,30.07
2023-05-09T11:22:37.477Z,28.00
2023-05-09T11:23:37.534Z,26.29
2023-05-09T11:24:37.566Z,20.82
2023-05-09T11:25:37.607Z,20.94
2023-05-09T11:26:37.620Z,16.91
2023-05-09T11:27:37.747Z,38.92
2023-05-09T11:28:37.709Z,30.01
2023-05-09T11:29:37.767Z,19.63
2023-05-09T11:30:37.808Z,0.00
2023-05-09T11:31:37.869Z,5.65
2023-05-09T11:32:37.893Z,23.79
2023-05-09T11:33:37.927Z,0.00
2023-05-09T11:34:37.947Z,14.85
2023-05-09T11:35:37.993Z,14.80
2023-05-09T11:36:38.041Z,11.13
2023-05-09T11:37:38.092Z,17.88
2023-05-09T11:38:38.118Z,24.86
2023-05-09T11:39:38.178Z,33.84
2023-05-09T11:40:38.229Z,25.48
2023-05-09T11:41:38.300Z,19.79
2023-05-09T11:42:38.339Z,30.78
2023-05-09T11:43:38.432Z,36.98
2023-05-09T11:44:38.353Z,50.06
2023-05-09T11:45:38.407Z,52.52
2023-05-09T11:46:38.414Z,61.61
2023-05-09T11:47:38.508Z,50.66
2023-05-09T11:48:38.502Z,60.48
2023-05-09T11:49:38.615Z,51.55
2023-05-09T11:50:38.636Z,45.48
2023-05-09T11:51:38.639Z,47.22
2023-05-09T11:52:38.691Z,50.99
2023-05-09T11:53:38.707Z,49.66
2023-05-09T11:54:38.775Z,55.05
2023-05-09T11:55:38.793Z,62.72
2023-05-09T11:56:38.862Z,66.45
2023-05-09T11:57:38.925Z,68.40
2023-05-09T11:58:38.971Z,73.52
2023-05-09T11:59:39.149Z,77.07
2023-05-09T12:00:39.054Z,80.94
2023-05-09T12:01:39.117Z,79.85
2023-05-09T12:02:39.273Z,84.18
2023-05-09T12:03:39.297Z,91.77
2023-05-09T12:04:39.516Z,95.59
2023-05-09T12:05:39.345Z,82.48
2023-05-09T12:06:39.434Z,86.11
2023-05-09T12:07:39.541Z,96.60
2023-05-09T12:08:39.502Z,110.09
2023-05-09T12:09:39.584Z,110.64
2023-05-09T12:10:39.611Z,113.92
2023-05-09T12:11:39.601Z,110.43
2023-05-09T12:12:39.654Z,110.92
2023-05-09T12:13:39.721Z,120.73
2023-05-09T12:14:39.795Z,121.75
2023-05-09T12:15:39.963Z,127.60
2023-05-09T12:16:39.962Z,136.68
2023-05-09T12:17:39.931Z,148.07
2023-05-09T12:18:39.886Z,155.50
2023-05-09T12:19:39.913Z,149.03
2023-05-09T12:20:39.904Z,147.34
2023-05-09T12:21:39.945Z,145.71
2023-05-09T12:22:39.996Z,148.37
2023-05-09T12:23:40.011Z,147.66
2023-05-09T12:24:40.086Z,145.86
2023-05-09T12:25:40.138Z,143.13
2023-05-09T12:26:40.150Z,139.36
2023-05-09T12:27:40.227Z,145.06
2023-05-09T12:28:40.284Z,149.09
2023-05-09T12:29:40.339Z,154.01
2023-05-09T12:30:40.349Z,155.01
2023-05-09T12:31:40.557Z,161.13
2023-05-09T12:32:40.767Z,159.68
2023-05-09T12:33:40.509Z,156.51
2023-05-09T12:34:40.487Z,156.34